Time;durP1;ratioP1;P1;durP2;ratioP2;P2;SDS_P1;SDS_P2;PMS_P1;PMS_P2;Temp;Humidity;BMP_temperature;BMP_pressure;BME280_temperature;BME280_humidity;BME280_pressure;Samples;Min_cycle;Max_cycle;Signal;HPM_P1;HPM_P2
2023/05/21 00:02:14;;;;;;;3.03;2.00;;;;;;;;;;5048661;28;20108;-74
2023/05/21 00:04:40;;;;;;;3.67;2.40;;;;;;;;;;5051804;28;20033;-74
2023/05/21 00:07:08;;;;;;;2.80;2.00;;;;;;;;;;5046888;28;20597;-74
2023/05/21 00:09:37;;;;;;;3.75;2.25;;;;;;;;;;5039097;28;20144;-74
2023/05/21 00:12:03;;;;;;;5.38;2.20;;;;;;;;;;5035711;28;20025;-74
2023/05/21 00:14:28;;;;;;;4.55;2.10;;;;;;;;;;5043960;28;20032;-74
2023/05/21 00:16:53;;;;;;;3.72;2.30;;;;;;;;;;5041892;28;20027;-75
2023/05/21 00:19:19;;;;;;;4.95;2.80;;;;;;;;;;5043427;28;20027;-74
2023/05/21 00:21:47;;;;;;;4.10;2.50;;;;;;;;;;5043614;28;20112;-74
2023/05/21 00:24:12;;;;;;;4.40;2.33;;;;;;;;;;5047172;28;20393;-73
2023/05/21 00:26:37;;;;;;;4.53;2.30;;;;;;;;;;5042627;28;20033;-74
2023/05/21 00:29:03;;;;;;;5.25;2.50;;;;;;;;;;5042976;28;20033;-73
2023/05/21 00:31:30;;;;;;;3.78;2.30;;;;;;;;;;5043788;28;20045;-77
2023/05/21 00:33:56;;;;;;;3.70;2.50;;;;;;;;;;5041213;28;20025;-75
2023/05/21 00:36:22;;;;;;;4.72;2.38;;;;;;;;;;5025208;28;20025;-75
2023/05/21 00:38:49;;;;;;;3.75;2.65;;;;;;;;;;5047433;28;20366;-74
2023/05/21 00:41:15;;;;;;;3.67;2.47;;;;;;;;;;5045845;28;20033;-75
2023/05/21 00:43:41;;;;;;;3.50;2.20;;;;;;;;;;5047084;28;20477;-74
2023/05/21 00:46:07;;;;;;;4.57;2.33;;;;;;;;;;5034708;28;20094;-75
2023/05/21 00:48:33;;;;;;;5.22;2.53;;;;;;;;;;5027904;28;20120;-75
2023/05/21 00:50:59;;;;;;;4.32;2.63;;;;;;;;;;5030047;28;20036;-74
2023/05/21 00:53:26;;;;;;;3.70;2.20;;;;;;;;;;5031239;28;20031;-74
2023/05/21 00:55:52;;;;;;;5.32;2.40;;;;;;;;;;5027875;28;20393;-74
2023/05/21 00:58:17;;;;;;;4.50;2.70;;;;;;;;;;5050424;28;20033;-75
2023/05/21 01:00:43;;;;;;;4.15;2.40;;;;;;;;;;5044414;28;20029;-74
2023/05/21 01:03:09;;;;;;;4.00;2.60;;;;;;;;;;5026558;28;20028;-74
2023/05/21 01:05:35;;;;;;;3.63;2.30;;;;;;;;;;5021773;28;20111;-74
2023/05/21 01:08:01;;;;;;;4.20;2.35;;;;;;;;;;5048262;28;20156;-75
2023/05/21 01:10:28;;;;;;;3.90;2.67;;;;;;;;;;5043017;28;20025;-74
2023/05/21 01:12:56;;;;;;;3.55;2.58;;;;;;;;;;5023775;28;20388;-74
2023/05/21 01:15:21;;;;;;;3.30;2.17;;;;;;;;;;5046523;28;20029;-74
2023/05/21 01:17:47;;;;;;;4.90;2.63;;;;;;;;;;5042990;28;20033;-74
2023/05/21 01:20:17;;;;;;;5.35;2.75;;;;;;;;;;5045424;28;20026;-74
2023/05/21 01:22:53;;;;;;;3.90;2.40;;;;;;;;;;5046506;28;20078;-74
2023/05/21 01:25:19;;;;;;;4.53;2.88;;;;;;;;;;5052571;28;20021;-74
2023/05/21 01:27:44;;;;;;;3.92;2.65;;;;;;;;;;5045910;28;20035;-74
2023/05/21 01:30:10;;;;;;;4.25;2.72;;;;;;;;;;5033990;28;20134;-74
2023/05/21 01:32:36;;;;;;;3.65;2.70;;;;;;;;;;5049996;28;20025;-74
2023/05/21 01:35:08;;;;;;;4.35;2.70;;;;;;;;;;5054149;28;20031;-73
2023/05/21 01:37:40;;;;;;;3.95;2.58;;;;;;;;;;5041710;28;20172;-74
2023/05/21 01:40:33;;;;;;;3.53;2.60;;;;;;;;;;5046444;28;20029;-74
2023/05/21 01:42:58;;;;;;;;;;;;;;;;;;5041297;28;20045;-74
2023/05/21 01:45:26;;;;;;;5.35;3.00;;;;;;;;;;5048069;28;19920;-75
2023/05/21 01:47:54;;;;;;;4.75;3.20;;;;;;;;;;5042920;28;20083;-74
2023/05/21 01:50:22;;;;;;;4.15;2.70;;;;;;;;;;5035534;28;20032;-74
2023/05/21 01:52:57;;;;;;;4.13;2.70;;;;;;;;;;5050075;28;20649;-75
2023/05/21 01:55:27;;;;;;;4.60;2.90;;;;;;;;;;5045545;28;20020;-74
2023/05/21 01:57:53;;;;;;;3.97;2.88;;;;;;;;;;5041634;28;20025;-75
2023/05/21 02:00:23;;;;;;;4.18;2.67;;;;;;;;;;5047447;28;20033;-74
2023/05/21 02:02:49;;;;;;;4.40;3.10;;;;;;;;;;5035312;28;20033;-74
2023/05/21 02:05:15;;;;;;;5.18;3.65;;;;;;;;;;5026952;28;20024;-74
2023/05/21 02:07:42;;;;;;;4.40;2.60;;;;;;;;;;5049388;28;20033;-74
2023/05/21 02:10:08;;;;;;;4.45;2.90;;;;;;;;;;5050307;28;20443;-74
2023/05/21 02:12:33;;;;;;;4.10;3.00;;;;;;;;;;5025249;28;20116;-74
2023/05/21 02:14:59;;;;;;;5.65;3.28;;;;;;;;;;5032376;28;20032;-74
2023/05/21 02:17:24;;;;;;;5.25;3.30;;;;;;;;;;5043537;28;20024;-74
2023/05/21 02:19:50;;;;;;;5.32;3.20;;;;;;;;;;5032384;28;20032;-74
2023/05/21 02:22:15;;;;;;;4.20;2.85;;;;;;;;;;5034994;28;20035;-76
2023/05/21 02:24:41;;;;;;;5.57;3.17;;;;;;;;;;5052460;28;20028;-74
2023/05/21 02:27:09;;;;;;;4.07;2.95;;;;;;;;;;5033899;28;20025;-74
2023/05/21 02:29:34;;;;;;;4.63;2.92;;;;;;;;;;5030682;28;20493;-74
2023/05/21 02:32:00;;;;;;;5.65;3.05;;;;;;;;;;5050121;28;20057;-73
2023/05/21 02:34:25;;;;;;;5.55;3.10;;;;;;;;;;5049862;28;20029;-74
2023/05/21 02:36:53;;;;;;;5.75;3.30;;;;;;;;;;5047337;28;20025;-74
2023/05/21 02:39:19;;;;;;;4.40;3.00;;;;;;;;;;5048924;28;20025;-74
2023/05/21 02:41:45;;;;;;;4.88;2.90;;;;;;;;;;5047011;28;20036;-74
2023/05/21 02:44:11;;;;;;;4.30;3.08;;;;;;;;;;5036239;28;20020;-74
2023/05/21 02:46:36;;;;;;;4.43;2.85;;;;;;;;;;5050686;28;20389;-74
2023/05/21 02:49:02;;;;;;;4.40;3.15;;;;;;;;;;5053918;28;20152;-74
2023/05/21 02:51:27;;;;;;;5.65;3.28;;;;;;;;;;5049984;28;20029;-74
2023/05/21 02:53:52;;;;;;;4.65;2.88;;;;;;;;;;5050230;28;20029;-74
2023/05/21 02:56:18;;;;;;;5.32;3.05;;;;;;;;;;5048924;28;20031;-75
2023/05/21 02:58:44;;;;;;;4.38;3.03;;;;;;;;;;5049380;28;20489;-74
2023/05/21 03:01:09;;;;;;;5.10;3.05;;;;;;;;;;5035772;28;20065;-74
2023/05/21 03:03:35;;;;;;;5.50;3.42;;;;;;;;;;5050261;28;20017;-73
2023/05/21 03:06:00;;;;;;;5.05;3.20;;;;;;;;;;5051738;28;20103;-74
2023/05/21 03:08:25;;;;;;;4.30;3.08;;;;;;;;;;5028115;28;20025;-74
2023/05/21 03:10:51;;;;;;;4.82;3.30;;;;;;;;;;5050644;28;20036;-74
2023/05/21 03:13:16;;;;;;;4.93;3.35;;;;;;;;;;5035030;28;20524;-74
2023/05/21 03:15:42;;;;;;;4.10;3.10;;;;;;;;;;5029703;28;20461;-74
2023/05/21 03:18:09;;;;;;;5.47;3.60;;;;;;;;;;5042812;28;20027;-74
2023/05/21 03:20:34;;;;;;;4.80;3.20;;;;;;;;;;5031082;28;20030;-74
2023/05/21 03:23:03;;;;;;;6.53;3.65;;;;;;;;;;5048449;28;20559;-74
2023/05/21 03:25:28;;;;;;;5.05;3.40;;;;;;;;;;5036539;28;20037;-75
2023/05/21 03:27:54;;;;;;;6.15;3.50;;;;;;;;;;5048475;28;20032;-74
2023/05/21 03:30:19;;;;;;;6.53;3.97;;;;;;;;;;5047132;28;20032;-74
2023/05/21 03:32:46;;;;;;;5.68;3.28;;;;;;;;;;5050370;28;20072;-74
2023/05/21 03:35:11;;;;;;;5.80;3.72;;;;;;;;;;5044561;28;20025;-74
2023/05/21 03:37:37;;;;;;;4.55;3.33;;;;;;;;;;5042775;28;20514;-73
2023/05/21 03:40:03;;;;;;;5.57;3.05;;;;;;;;;;5048687;28;20032;-74
2023/05/21 03:42:28;;;;;;;5.82;3.53;;;;;;;;;;5049901;28;20171;-74
2023/05/21 03:44:54;;;;;;;4.50;3.05;;;;;;;;;;5044140;28;20548;-74
2023/05/21 03:47:20;;;;;;;4.82;3.47;;;;;;;;;;5049489;28;20025;-75
2023/05/21 03:49:45;;;;;;;5.00;3.30;;;;;;;;;;5032641;28;20079;-74
2023/05/21 03:52:10;;;;;;;5.68;3.80;;;;;;;;;;5043682;28;20036;-74
2023/05/21 03:54:36;;;;;;;5.70;3.78;;;;;;;;;;5053234;28;20025;-74
2023/05/21 03:57:01;;;;;;;5.50;3.63;;;;;;;;;;5049654;28;20924;-74
2023/05/21 03:59:27;;;;;;;4.75;3.60;;;;;;;;;;5030170;28;20496;-74
2023/05/21 04:01:52;;;;;;;6.85;4.05;;;;;;;;;;5049950;28;20029;-74
2023/05/21 04:04:17;;;;;;;5.53;3.70;;;;;;;;;;5024715;28;20067;-75
2023/05/21 04:06:42;;;;;;;6.88;3.63;;;;;;;;;;5027081;28;20099;-74
2023/05/21 04:09:08;;;;;;;5.28;3.58;;;;;;;;;;5030729;28;20092;-74
2023/05/21 04:11:33;;;;;;;4.80;3.40;;;;;;;;;;5026645;28;20180;-74
2023/05/21 04:13:58;;;;;;;4.82;3.40;;;;;;;;;;5043917;28;20032;-75
2023/05/21 04:16:24;;;;;;;6.30;3.92;;;;;;;;;;5048897;28;20103;-74
2023/05/21 04:18:50;;;;;;;6.05;3.92;;;;;;;;;;5048759;28;20500;-74
2023/05/21 04:21:15;;;;;;;5.75;4.00;;;;;;;;;;5046417;28;20032;-76
2023/05/21 04:23:41;;;;;;;6.00;3.80;;;;;;;;;;5042171;28;20029;-74
2023/05/21 04:26:06;;;;;;;5.75;3.67;;;;;;;;;;5044091;28;20093;-75
2023/05/21 04:28:32;;;;;;;5.93;3.75;;;;;;;;;;5046375;28;20024;-74
2023/05/21 04:30:57;;;;;;;5.32;3.75;;;;;;;;;;5030588;28;20109;-74
2023/05/21 04:33:23;;;;;;;4.82;3.50;;;;;;;;;;5025069;28;20477;-74
2023/05/21 04:35:50;;;;;;;4.70;3.42;;;;;;;;;;5040895;28;20033;-74
2023/05/21 04:38:19;;;;;;;6.43;3.80;;;;;;;;;;5028257;28;23035;-75
2023/05/21 04:40:51;;;;;;;6.10;3.92;;;;;;;;;;5048774;28;20033;-74
2023/05/21 04:43:17;;;;;;;5.72;4.28;;;;;;;;;;5049296;28;20039;-74
2023/05/21 04:45:42;;;;;;;5.00;3.78;;;;;;;;;;5025689;28;20021;-77
2023/05/21 04:48:08;;;;;;;6.68;4.15;;;;;;;;;;5043203;28;20413;-74
2023/05/21 04:50:33;;;;;;;6.10;4.30;;;;;;;;;;5016761;28;20026;-74
2023/05/21 04:52:59;;;;;;;5.28;3.83;;;;;;;;;;5030539;28;20037;-75
2023/05/21 04:55:24;;;;;;;5.90;3.78;;;;;;;;;;5012900;28;20084;-75
2023/05/21 04:57:51;;;;;;;5.00;3.80;;;;;;;;;;5014890;28;20440;-74
2023/05/21 05:00:16;;;;;;;6.82;4.03;;;;;;;;;;5008990;28;20017;-74
2023/05/21 05:02:42;;;;;;;5.70;4.13;;;;;;;;;;5028769;28;20092;-75
2023/05/21 05:05:08;;;;;;;7.72;4.30;;;;;;;;;;5020191;28;20051;-74
2023/05/21 05:07:33;;;;;;;6.45;4.43;;;;;;;;;;5025221;28;20032;-74
2023/05/21 05:09:58;;;;;;;5.28;3.63;;;;;;;;;;5024409;28;20477;-74
2023/05/21 05:12:24;;;;;;;6.63;3.67;;;;;;;;;;5007409;28;20044;-75
2023/05/21 05:14:49;;;;;;;6.30;4.05;;;;;;;;;;5024486;28;20025;-74
2023/05/21 05:17:15;;;;;;;6.47;4.20;;;;;;;;;;5020915;28;20104;-74
2023/05/21 05:19:40;;;;;;;6.57;4.00;;;;;;;;;;5006005;28;20052;-75
2023/05/21 05:22:06;;;;;;;6.15;3.58;;;;;;;;;;5005416;28;20063;-74
2023/05/21 05:24:31;;;;;;;4.88;3.60;;;;;;;;;;5033220;28;20059;-74
2023/05/21 05:26:57;;;;;;;6.80;3.83;;;;;;;;;;5012418;28;20036;-74
2023/05/21 05:29:22;;;;;;;5.55;4.00;;;;;;;;;;5009713;28;20030;-74
2023/05/21 05:31:47;;;;;;;5.82;4.07;;;;;;;;;;5027992;28;20494;-74
2023/05/21 05:34:13;;;;;;;6.07;4.28;;;;;;;;;;5029094;28;20370;-74
2023/05/21 05:36:38;;;;;;;7.85;4.03;;;;;;;;;;5023439;28;20099;-74
2023/05/21 05:39:04;;;;;;;5.75;3.75;;;;;;;;;;5011478;28;20032;-74
2023/05/21 05:41:29;;;;;;;5.20;3.75;;;;;;;;;;5031523;28;20028;-74
2023/05/21 05:43:55;;;;;;;6.22;4.00;;;;;;;;;;5025658;28;20033;-74
2023/05/21 05:46:20;;;;;;;7.60;4.03;;;;;;;;;;5033196;28;20032;-74
2023/05/21 05:48:46;;;;;;;6.57;4.40;;;;;;;;;;5050010;28;20032;-74
2023/05/21 05:51:11;;;;;;;6.75;4.15;;;;;;;;;;5048189;28;20021;-74
2023/05/21 05:53:36;;;;;;;5.43;3.80;;;;;;;;;;5035322;28;20036;-76
2023/05/21 05:56:02;;;;;;;5.63;3.80;;;;;;;;;;5029979;28;20021;-74
2023/05/21 05:58:29;;;;;;;5.85;3.70;;;;;;;;;;5029796;28;20068;-74
2023/05/21 06:00:55;;;;;;;7.45;4.43;;;;;;;;;;5030978;28;20033;-74
2023/05/21 06:03:20;;;;;;;5.18;4.00;;;;;;;;;;5046527;28;20025;-74
2023/05/21 06:05:45;;;;;;;6.03;4.32;;;;;;;;;;5050209;28;20021;-74
2023/05/21 06:08:11;;;;;;;6.13;4.22;;;;;;;;;;5046773;28;20040;-74
2023/05/21 06:10:36;;;;;;;5.38;4.15;;;;;;;;;;5048145;28;20013;-75
2023/05/21 06:13:01;;;;;;;6.07;3.67;;;;;;;;;;5032761;28;20016;-73
2023/05/21 06:15:27;;;;;;;5.78;4.05;;;;;;;;;;5045837;28;20492;-74
2023/05/21 06:17:52;;;;;;;5.90;4.20;;;;;;;;;;5050913;28;20020;-74
2023/05/21 06:20:17;;;;;;;6.65;4.15;;;;;;;;;;5050753;28;20485;-74
2023/05/21 06:22:43;;;;;;;5.68;4.00;;;;;;;;;;5034647;28;20032;-74
2023/05/21 06:25:09;;;;;;;6.15;4.20;;;;;;;;;;5048147;28;20500;-74
2023/05/21 06:27:34;;;;;;;5.95;4.00;;;;;;;;;;5034681;28;20104;-74
2023/05/21 06:30:00;;;;;;;5.63;3.97;;;;;;;;;;5048475;28;20561;-74
2023/05/21 06:32:25;;;;;;;4.95;3.83;;;;;;;;;;5048132;28;20025;-74
2023/05/21 06:34:51;;;;;;;6.43;4.15;;;;;;;;;;5031199;28;20052;-75
2023/05/21 06:37:22;;;;;;;7.10;4.35;;;;;;;;;;5054127;28;20388;-74
2023/05/21 06:39:47;;;;;;;5.45;3.63;;;;;;;;;;5028927;28;20036;-74
2023/05/21 06:42:13;;;;;;;6.25;4.30;;;;;;;;;;5033446;28;20020;-74
2023/05/21 06:44:38;;;;;;;6.78;4.22;;;;;;;;;;5026829;28;20028;-74
2023/05/21 06:47:04;;;;;;;7.65;4.10;;;;;;;;;;5049491;28;20504;-74
2023/05/21 06:49:29;;;;;;;6.93;3.92;;;;;;;;;;5051541;28;20048;-74
2023/05/21 06:51:55;;;;;;;6.63;4.40;;;;;;;;;;5034106;28;20124;-73
2023/05/21 06:54:21;;;;;;;5.93;4.13;;;;;;;;;;5037710;28;20116;-74
2023/05/21 06:56:46;;;;;;;7.40;4.68;;;;;;;;;;5049539;28;20059;-76
2023/05/21 06:59:11;;;;;;;7.10;4.70;;;;;;;;;;5036135;28;20482;-73
2023/05/21 07:01:41;;;;;;;7.10;4.85;;;;;;;;;;5050141;28;20517;-75
2023/05/21 07:04:06;;;;;;;8.98;4.85;;;;;;;;;;5034188;28;20556;-74
2023/05/21 07:06:31;;;;;;;6.82;4.82;;;;;;;;;;5041743;28;20120;-74
2023/05/21 07:08:57;;;;;;;7.72;4.90;;;;;;;;;;5045648;28;20029;-75
2023/05/21 07:11:27;;;;;;;7.70;4.40;;;;;;;;;;5030302;28;20027;-74
2023/05/21 07:13:53;;;;;;;7.38;4.78;;;;;;;;;;5043916;28;20071;-75
2023/05/21 07:16:18;;;;;;;7.25;4.80;;;;;;;;;;5048491;28;20029;-73
2023/05/21 07:18:44;;;;;;;7.80;5.05;;;;;;;;;;5029779;28;20040;-73
2023/05/21 07:21:09;;;;;;;6.70;4.55;;;;;;;;;;5045445;28;20029;-76
2023/05/21 07:23:35;;;;;;;8.48;4.95;;;;;;;;;;5042489;28;20060;-74
2023/05/21 07:26:00;;;;;;;7.70;5.10;;;;;;;;;;5041023;28;20111;-74
2023/05/21 07:28:25;;;;;;;6.97;5.13;;;;;;;;;;5044549;28;20028;-73
2023/05/21 07:30:51;;;;;;;7.82;4.90;;;;;;;;;;5029809;28;20056;-76
2023/05/21 07:33:19;;;;;;;7.00;4.82;;;;;;;;;;5047055;28;20105;-73
2023/05/21 07:35:44;;;;;;;7.60;5.28;;;;;;;;;;5033001;28;20468;-74
2023/05/21 07:38:10;;;;;;;7.30;4.78;;;;;;;;;;5033793;28;20032;-74
2023/05/21 07:40:35;;;;;;;6.63;4.68;;;;;;;;;;5050829;28;20079;-73
2023/05/21 07:43:01;;;;;;;6.78;4.75;;;;;;;;;;5030003;28;20033;-73
2023/05/21 07:45:26;;;;;;;7.15;5.00;;;;;;;;;;5044073;28;20095;-74
2023/05/21 07:47:51;;;;;;;7.43;5.00;;;;;;;;;;5045426;28;20100;-74
2023/05/21 07:50:17;;;;;;;7.10;4.95;;;;;;;;;;5045431;28;20039;-74
2023/05/21 07:52:42;;;;;;;7.07;5.18;;;;;;;;;;5031308;28;20028;-74
2023/05/21 07:55:08;;;;;;;6.85;5.20;;;;;;;;;;5048351;28;20037;-74
2023/05/21 07:57:34;;;;;;;7.13;5.05;;;;;;;;;;5042865;28;20087;-74
2023/05/21 08:00:00;;;;;;;6.30;4.65;;;;;;;;;;5054114;28;20024;-74
2023/05/21 08:02:25;;;;;;;8.25;5.55;;;;;;;;;;5048452;28;20033;-74
2023/05/21 08:04:51;;;;;;;7.35;5.43;;;;;;;;;;5034600;28;20464;-74
2023/05/21 08:07:18;;;;;;;7.40;4.80;;;;;;;;;;5048381;28;20029;-74
2023/05/21 08:09:44;;;;;;;7.35;5.07;;;;;;;;;;5025796;28;20037;-74
2023/05/21 08:12:13;;;;;;;9.00;5.35;;;;;;;;;;5024371;28;20036;-75
2023/05/21 08:14:38;;;;;;;7.05;5.40;;;;;;;;;;5042439;28;20449;-75
2023/05/21 08:17:03;;;;;;;8.50;5.45;;;;;;;;;;5041412;28;20034;-76
2023/05/21 08:19:29;;;;;;;9.50;4.90;;;;;;;;;;5040089;28;20040;-74
2023/05/21 08:21:55;;;;;;;8.68;5.68;;;;;;;;;;5047914;28;20021;-75
2023/05/21 08:24:20;;;;;;;6.85;5.28;;;;;;;;;;5030852;28;20496;-74
2023/05/21 08:26:48;;;;;;;9.00;5.28;;;;;;;;;;5048810;28;20071;-74
2023/05/21 08:29:13;;;;;;;7.75;5.72;;;;;;;;;;5051234;28;20031;-73
2023/05/21 08:31:39;;;;;;;11.40;5.43;;;;;;;;;;5047419;28;20116;-74
2023/05/21 08:34:04;;;;;;;9.52;5.95;;;;;;;;;;5026064;28;20472;-76
2023/05/21 08:36:30;;;;;;;7.93;5.70;;;;;;;;;;5046518;28;20028;-74
2023/05/21 08:38:55;;;;;;;7.45;5.55;;;;;;;;;;5052561;28;20021;-74
2023/05/21 08:41:22;;;;;;;8.00;5.43;;;;;;;;;;5040496;28;20056;-74
2023/05/21 08:43:55;;;;;;;7.38;5.65;;;;;;;;;;5038290;28;20026;-74
2023/05/21 08:46:23;;;;;;;7.50;4.97;;;;;;;;;;5031366;28;20060;-73
2023/05/21 08:48:53;;;;;;;8.35;5.55;;;;;;;;;;5027186;28;20445;-74
2023/05/21 08:51:19;;;;;;;10.18;5.97;;;;;;;;;;5045456;28;20168;-74
2023/05/21 08:53:45;;;;;;;10.40;6.20;;;;;;;;;;5036995;28;20040;-74
2023/05/21 08:56:11;;;;;;;13.85;6.00;;;;;;;;;;5042770;28;20032;-74
2023/05/21 08:58:39;;;;;;;9.60;5.30;;;;;;;;;;5017223;28;20032;-75
2023/05/21 09:01:04;;;;;;;9.23;6.13;;;;;;;;;;5046832;28;20052;-74
2023/05/21 09:03:31;;;;;;;7.07;5.60;;;;;;;;;;5043021;28;20068;-74
2023/05/21 09:05:57;;;;;;;7.40;5.03;;;;;;;;;;5046860;28;20029;-75
2023/05/21 09:08:34;;;;;;;8.68;6.03;;;;;;;;;;5045505;28;20072;-74
2023/05/21 09:11:01;;;;;;;8.50;5.57;;;;;;;;;;5029337;28;20030;-74
2023/05/21 09:13:30;;;;;;;10.95;6.40;;;;;;;;;;5033797;28;20027;-73
2023/05/21 09:15:55;;;;;;;8.63;5.82;;;;;;;;;;5050397;28;20025;-74
2023/05/21 09:18:21;;;;;;;8.00;5.65;;;;;;;;;;5048666;28;20378;-74
2023/05/21 09:20:46;;;;;;;8.32;5.88;;;;;;;;;;5054904;28;20428;-74
2023/05/21 09:23:16;;;;;;;9.05;6.05;;;;;;;;;;5049577;28;20029;-73
2023/05/21 09:25:46;;;;;;;9.20;6.13;;;;;;;;;;5043345;28;20017;-74
2023/05/21 09:28:15;;;;;;;9.27;5.97;;;;;;;;;;5046066;28;20473;-75
2023/05/21 09:30:48;;;;;;;9.32;6.05;;;;;;;;;;5055095;28;20108;-73
2023/05/21 09:33:25;;;;;;;11.10;6.00;;;;;;;;;;5041729;28;20117;-73
2023/05/21 09:35:50;;;;;;;9.82;6.10;;;;;;;;;;5050545;28;20037;-72
2023/05/21 09:38:16;;;;;;;8.50;5.82;;;;;;;;;;5034192;28;20029;-73
2023/05/21 09:40:47;;;;;;;9.07;6.20;;;;;;;;;;5050810;28;20355;-73
2023/05/21 09:43:17;;;;;;;9.02;6.15;;;;;;;;;;5043770;28;20104;-74
2023/05/21 09:45:52;;;;;;;9.00;5.60;;;;;;;;;;5048777;28;20041;-74
2023/05/21 09:48:32;;;;;;;8.20;5.80;;;;;;;;;;5036902;28;20541;-73
2023/05/21 09:51:11;;;;;;;10.00;5.95;;;;;;;;;;5029435;28;20033;-74
2023/05/21 09:53:57;;;;;;;7.53;5.80;;;;;;;;;;5013280;28;20577;-73
2023/05/21 09:56:24;;;;;;;9.05;6.45;;;;;;;;;;5028262;28;20504;-73
2023/05/21 09:58:54;;;;;;;8.48;6.25;;;;;;;;;;5007790;28;20052;-73
2023/05/21 10:01:20;;;;;;;9.68;6.57;;;;;;;;;;5027706;28;20037;-73
2023/05/21 10:03:49;;;;;;;9.55;6.00;;;;;;;;;;5026320;28;20051;-73
2023/05/21 10:06:17;;;;;;;8.00;5.72;;;;;;;;;;5031228;28;20021;-73
2023/05/21 10:08:44;;;;;;;8.55;5.80;;;;;;;;;;5028092;28;20462;-73
2023/05/21 10:11:11;;;;;;;8.88;6.47;;;;;;;;;;5026731;28;20021;-73
2023/05/21 10:13:43;;;;;;;9.65;6.30;;;;;;;;;;5007214;28;20025;-75
2023/05/21 10:16:09;;;;;;;8.70;6.05;;;;;;;;;;5030362;28;20029;-73
2023/05/21 10:18:36;;;;;;;8.45;6.15;;;;;;;;;;5032726;28;20114;-73
2023/05/21 10:21:02;;;;;;;11.70;6.47;;;;;;;;;;5009398;28;20025;-73
2023/05/21 10:23:28;;;;;;;10.00;6.18;;;;;;;;;;5030227;28;20083;-74
2023/05/21 10:25:55;;;;;;;8.23;6.00;;;;;;;;;;5032755;28;20025;-72
2023/05/21 10:28:21;;;;;;;9.95;6.65;;;;;;;;;;5035277;28;20030;-73
2023/05/21 10:30:47;;;;;;;9.10;6.40;;;;;;;;;;5019230;28;20355;-73
2023/05/21 10:33:15;;;;;;;10.85;7.13;;;;;;;;;;5032482;28;20150;-73
2023/05/21 10:35:41;;;;;;;11.75;6.85;;;;;;;;;;5033423;28;20121;-73
2023/05/21 10:38:08;;;;;;;9.27;7.45;;;;;;;;;;5018458;28;20034;-73
2023/05/21 10:40:34;;;;;;;10.63;7.57;;;;;;;;;;5022760;28;20186;-73
2023/05/21 10:43:08;;;;;;;13.38;7.57;;;;;;;;;;5010959;28;20089;-73
2023/05/21 10:45:46;;;;;;;11.30;7.85;;;;;;;;;;5031682;28;20032;-73
2023/05/21 10:48:37;;;;;;;11.05;7.57;;;;;;;;;;5041287;28;20093;-73
2023/05/21 10:51:22;;;;;;;12.32;8.68;;;;;;;;;;5053975;28;20051;-73
2023/05/21 10:54:12;;;;;;;11.45;7.53;;;;;;;;;;5052030;28;20076;-73
2023/05/21 10:56:43;;;;;;;9.60;7.65;;;;;;;;;;5044219;28;20072;-73
2023/05/21 10:59:33;;;;;;;10.25;7.82;;;;;;;;;;5039849;28;20044;-73
2023/05/21 11:01:58;;;;;;;10.63;7.80;;;;;;;;;;5060112;28;20086;-72
2023/05/21 11:04:27;;;;;;;10.88;8.27;;;;;;;;;;5062492;28;20111;-73
2023/05/21 11:06:55;;;;;;;10.43;7.80;;;;;;;;;;5039128;28;20023;-73
2023/05/21 11:09:20;;;;;;;12.10;8.32;;;;;;;;;;5037872;28;20021;-73
2023/05/21 11:11:50;;;;;;;10.63;7.32;;;;;;;;;;5056538;28;20025;-73
2023/05/21 11:14:38;;;;;;;10.75;7.75;;;;;;;;;;5048307;28;20505;-73
2023/05/21 11:17:06;;;;;;;16.77;8.80;;;;;;;;;;5049903;28;20033;-73
2023/05/21 11:19:47;;;;;;;13.32;9.05;;;;;;;;;;5057073;28;20036;-73
2023/05/21 11:22:23;;;;;;;12.30;8.45;;;;;;;;;;5052243;28;20025;-74
2023/05/21 11:24:50;;;;;;;10.07;8.18;;;;;;;;;;5056276;28;20028;-75
2023/05/21 11:27:37;;;;;;;14.13;9.70;;;;;;;;;;5029958;28;21292;-74
2023/05/21 11:30:04;;;;;;;12.55;8.70;;;;;;;;;;5050516;28;20051;-74
2023/05/21 11:32:30;;;;;;;12.05;8.63;;;;;;;;;;5037264;28;20087;-74
2023/05/21 11:34:59;;;;;;;14.38;9.52;;;;;;;;;;5058207;28;20025;-73
2023/05/21 11:37:26;;;;;;;13.65;9.60;;;;;;;;;;5046407;28;20512;-73
2023/05/21 11:39:53;;;;;;;11.57;8.65;;;;;;;;;;5054066;28;20028;-73
2023/05/21 11:42:28;;;;;;;11.02;8.65;;;;;;;;;;5036314;28;20035;-73
2023/05/21 11:44:57;;;;;;;12.68;8.00;;;;;;;;;;5053852;28;20031;-73
2023/05/21 11:47:25;;;;;;;15.85;8.93;;;;;;;;;;5043459;28;20034;-75
2023/05/21 11:49:50;;;;;;;12.23;8.77;;;;;;;;;;5011723;28;20371;-73
2023/05/21 11:52:18;;;;;;;13.25;8.52;;;;;;;;;;5033023;28;20033;-73
2023/05/21 11:54:47;;;;;;;11.55;8.60;;;;;;;;;;5032603;28;20141;-74
2023/05/21 11:57:17;;;;;;;13.73;9.10;;;;;;;;;;5035174;28;20028;-73
2023/05/21 11:59:43;;;;;;;11.95;8.55;;;;;;;;;;5008620;28;20029;-74
2023/05/21 12:02:08;;;;;;;12.10;8.52;;;;;;;;;;5022725;28;20030;-73
2023/05/21 12:04:35;;;;;;;13.07;8.75;;;;;;;;;;5025954;28;20104;-73
2023/05/21 12:07:06;;;;;;;10.35;7.85;;;;;;;;;;5011825;28;20555;-73
2023/05/21 12:09:41;;;;;;;14.05;9.18;;;;;;;;;;5023472;28;20386;-73
2023/05/21 12:12:12;;;;;;;11.45;8.60;;;;;;;;;;5020868;28;20021;-73
2023/05/21 12:14:37;;;;;;;13.20;8.60;;;;;;;;;;5026250;28;20029;-73
2023/05/21 12:17:04;;;;;;;9.82;7.88;;;;;;;;;;5029144;28;20029;-73
2023/05/21 12:19:33;;;;;;;12.00;8.48;;;;;;;;;;5038088;28;20048;-74
2023/05/21 12:22:01;;;;;;;9.23;7.32;;;;;;;;;;5033974;28;20018;-74
2023/05/21 12:24:26;;;;;;;11.25;8.70;;;;;;;;;;5040575;28;20025;-73
2023/05/21 12:26:53;;;;;;;11.18;8.13;;;;;;;;;;5033940;28;20031;-73
2023/05/21 12:29:19;;;;;;;10.50;8.45;;;;;;;;;;5021799;28;20025;-73
2023/05/21 12:31:48;;;;;;;10.07;7.55;;;;;;;;;;5028090;28;20067;-73
2023/05/21 12:34:17;;;;;;;10.68;8.07;;;;;;;;;;5024838;28;20033;-74
2023/05/21 12:36:47;;;;;;;9.27;7.25;;;;;;;;;;5004917;28;20093;-75
2023/05/21 12:39:13;;;;;;;9.45;7.32;;;;;;;;;;5023073;28;20029;-75
2023/05/21 12:41:38;;;;;;;12.75;7.65;;;;;;;;;;5008374;28;20037;-75
2023/05/21 12:44:04;;;;;;;10.00;7.75;;;;;;;;;;5026500;28;20044;-73
2023/05/21 12:46:30;;;;;;;10.38;7.60;;;;;;;;;;5012521;28;20025;-74
2023/05/21 12:48:55;;;;;;;11.05;7.97;;;;;;;;;;5035937;28;20041;-74
2023/05/21 12:51:21;;;;;;;9.00;7.25;;;;;;;;;;5051009;28;20028;-73
2023/05/21 12:53:46;;;;;;;9.93;7.47;;;;;;;;;;5051388;28;20037;-73
2023/05/21 12:56:14;;;;;;;11.48;7.13;;;;;;;;;;5053302;28;20013;-74
2023/05/21 12:58:40;;;;;;;10.07;7.22;;;;;;;;;;5047636;28;20021;-73
2023/05/21 13:01:10;;;;;;;10.13;7.22;;;;;;;;;;5053267;28;20172;-73
2023/05/21 13:03:40;;;;;;;8.90;7.22;;;;;;;;;;5044677;28;20029;-74
2023/05/21 13:06:07;;;;;;;10.32;7.47;;;;;;;;;;5029418;28;20033;-74
2023/05/21 13:08:33;;;;;;;10.23;6.68;;;;;;;;;;5036556;28;20025;-73
2023/05/21 13:11:00;;;;;;;9.70;7.15;;;;;;;;;;5048947;28;20028;-73
2023/05/21 13:13:26;;;;;;;9.95;7.10;;;;;;;;;;5048859;28;20548;-74
2023/05/21 13:15:53;;;;;;;8.73;6.90;;;;;;;;;;5032880;28;20025;-73
2023/05/21 13:18:19;;;;;;;9.82;7.35;;;;;;;;;;5042112;28;20120;-75
2023/05/21 13:20:46;;;;;;;8.77;7.05;;;;;;;;;;5054124;28;20025;-73
2023/05/21 13:23:11;;;;;;;8.65;6.63;;;;;;;;;;5026050;28;20033;-75
2023/05/21 13:25:36;;;;;;;8.75;6.88;;;;;;;;;;5045874;28;20111;-73
2023/05/21 13:28:03;;;;;;;9.35;6.75;;;;;;;;;;5048358;28;20132;-74
2023/05/21 13:30:29;;;;;;;8.15;6.32;;;;;;;;;;5025494;28;20025;-74
2023/05/21 13:32:54;;;;;;;9.63;7.63;;;;;;;;;;5046827;28;20366;-74
2023/05/21 13:35:20;;;;;;;13.13;9.10;;;;;;;;;;5031164;28;20021;-73
2023/05/21 13:37:45;;;;;;;9.13;6.88;;;;;;;;;;5027911;28;20025;-74
2023/05/21 13:40:13;;;;;;;8.35;6.60;;;;;;;;;;5047666;28;20025;-74
2023/05/21 13:42:39;;;;;;;9.73;6.15;;;;;;;;;;5047239;28;20036;-73
2023/05/21 13:45:10;;;;;;;9.15;6.22;;;;;;;;;;5046902;28;20504;-74
2023/05/21 13:47:36;;;;;;;8.43;6.20;;;;;;;;;;5049673;28;20025;-73
2023/05/21 13:50:01;;;;;;;9.38;6.53;;;;;;;;;;5045453;28;20037;-73
2023/05/21 13:52:27;;;;;;;10.77;7.10;;;;;;;;;;5044986;28;20036;-73
2023/05/21 13:54:52;;;;;;;10.23;7.68;;;;;;;;;;5033707;28;20037;-74
2023/05/21 13:57:17;;;;;;;9.35;7.32;;;;;;;;;;5041518;28;20031;-73
2023/05/21 13:59:43;;;;;;;11.65;7.43;;;;;;;;;;5031812;28;20042;-73
2023/05/21 14:02:09;;;;;;;10.63;8.38;;;;;;;;;;5029278;28;20032;-74
2023/05/21 14:04:35;;;;;;;10.73;7.43;;;;;;;;;;5049130;28;20033;-74
2023/05/21 14:07:01;;;;;;;8.82;6.07;;;;;;;;;;5048871;28;20056;-74
2023/05/21 14:09:28;;;;;;;14.05;9.05;;;;;;;;;;5050304;28;20033;-73
2023/05/21 14:11:54;;;;;;;11.85;7.97;;;;;;;;;;5047949;28;20056;-74
2023/05/21 14:14:20;;;;;;;10.05;7.00;;;;;;;;;;5051600;28;20036;-73
2023/05/21 14:16:46;;;;;;;9.80;6.20;;;;;;;;;;5034057;28;20028;-74
2023/05/21 14:19:11;;;;;;;9.00;6.68;;;;;;;;;;5047592;28;20040;-73
2023/05/21 14:21:36;;;;;;;10.60;6.50;;;;;;;;;;5037637;28;20032;-74
2023/05/21 14:24:02;;;;;;;10.98;7.80;;;;;;;;;;5046723;28;20078;-74
2023/05/21 14:26:28;;;;;;;10.90;7.00;;;;;;;;;;5047135;28;20405;-74
2023/05/21 14:28:54;;;;;;;9.10;6.55;;;;;;;;;;5034501;28;20086;-73
2023/05/21 14:31:20;;;;;;;9.65;7.10;;;;;;;;;;5047683;28;20059;-74
2023/05/21 14:33:45;;;;;;;9.50;6.55;;;;;;;;;;5047854;28;20056;-74
2023/05/21 14:36:11;;;;;;;9.55;6.80;;;;;;;;;;5056157;28;20025;-74
2023/05/21 14:38:36;;;;;;;9.73;7.63;;;;;;;;;;5043903;28;20032;-73
2023/05/21 14:41:02;;;;;;;10.38;7.78;;;;;;;;;;5037396;28;20037;-73